Terminal Aerodrome Forecast
Issued by NWS North Platte, NE

Home | Current Version | Previous Version | Text Only | Print | Product List | Glossary On
Versions: 1 2 3 4 5 6 7 8 9 10 11 12 13 14 15 16 17 18 19 20
000
FTUS43 KLBF 222320
TAFVTN
TAF
KVTN 222320Z 2300/2324 35016G24KT P6SM SCT045 BKN090
     FM230200 33010KT P6SM BKN120
     FM231400 33014G20KT P6SM BKN060
     FM231600 35018G26KT P6SM BKN070=

USA.gov is the U.S. government's official web portal to all federal, state and local government web resources and services.